Time;durP1;ratioP1;P1;durP2;ratioP2;P2;SDS_P1;SDS_P2;PMS_P1;PMS_P2;Temp;Humidity;BMP_temperature;BMP_pressure;BME280_temperature;BME280_humidity;BME280_pressure;Samples;Min_cycle;Max_cycle;Signal;HPM_P1;HPM_P2
2022/11/04 00:01:19;;;;;;;7.60;2.33;;;;;;;;;;4995312;28;20038;-51
2022/11/04 00:03:45;;;;;;;7.72;2.58;;;;;;;;;;5010471;28;20042;-47
2022/11/04 00:06:11;;;;;;;6.20;2.47;;;;;;;;;;4996712;28;20152;-49
2022/11/04 00:08:36;;;;;;;6.40;2.08;;;;;;;;;;4997600;28;20095;-46
2022/11/04 00:13:46;;;;;;;6.03;2.00;;;;;;;;;;4998431;28;20129;-46
2022/11/04 00:18:58;;;;;;;6.88;2.72;;;;;;;;;;5000535;28;20049;-47
2022/11/04 00:30:07;;;;;;;6.55;1.45;;;;;;;;;;4965976;28;20105;-45
2022/11/04 00:35:17;;;;;;;8.75;1.45;;;;;;;;;;4966455;28;20037;-46
2022/11/04 00:37:43;;;;;;;3.03;1.20;;;;;;;;;;4966704;28;20413;-51
2022/11/04 00:40:11;;;;;;;3.85;1.30;;;;;;;;;;4962124;28;20027;-45
2022/11/04 00:42:37;;;;;;;1.45;1.10;;;;;;;;;;4967625;28;20031;-47
2022/11/04 00:45:03;;;;;;;3.58;1.20;;;;;;;;;;4970802;28;20173;-45
2022/11/04 00:47:28;;;;;;;1.38;1.02;;;;;;;;;;4970783;28;20517;-47
2022/11/04 00:49:54;;;;;;;5.57;1.10;;;;;;;;;;4967518;28;20138;-48
2022/11/04 00:52:19;;;;;;;2.97;1.17;;;;;;;;;;4964003;28;20598;-46
2022/11/04 00:54:45;;;;;;;2.55;1.27;;;;;;;;;;4967643;28;20054;-48
2022/11/04 00:57:11;;;;;;;3.35;1.25;;;;;;;;;;4973007;28;20407;-46
2022/11/04 00:59:36;;;;;;;2.42;1.30;;;;;;;;;;4992777;28;20053;-48
2022/11/04 01:02:03;;;;;;;1.40;1.00;;;;;;;;;;4989730;28;20378;-45
2022/11/04 01:04:28;;;;;;;4.85;1.20;;;;;;;;;;4998862;28;20045;-51
2022/11/04 01:06:54;;;;;;;4.35;1.73;;;;;;;;;;4991807;28;20361;-51
2022/11/04 01:09:19;;;;;;;6.55;1.50;;;;;;;;;;4997484;28;20122;-50
2022/11/04 01:11:44;;;;;;;3.13;1.35;;;;;;;;;;4994250;28;20414;-49
2022/11/04 01:14:11;;;;;;;2.65;1.17;;;;;;;;;;4992196;28;20138;-46
2022/11/04 01:16:36;;;;;;;3.95;1.23;;;;;;;;;;4994813;28;20034;-47
2022/11/04 01:19:02;;;;;;;8.57;1.50;;;;;;;;;;4999701;28;20087;-48
2022/11/04 01:21:27;;;;;;;3.05;1.48;;;;;;;;;;4993373;28;20404;-47
2022/11/04 01:23:53;;;;;;;2.25;1.13;;;;;;;;;;4997026;28;20039;-50
2022/11/04 01:26:21;;;;;;;1.63;1.30;;;;;;;;;;4999348;28;20057;-49
2022/11/04 01:28:47;;;;;;;4.38;1.20;;;;;;;;;;4992827;28;20045;-51
2022/11/04 01:31:20;;;;;;;2.92;1.45;;;;;;;;;;4994915;28;20039;-52
2022/11/04 01:33:45;;;;;;;2.95;1.25;;;;;;;;;;4997438;28;20038;-51
2022/11/04 01:36:11;;;;;;;7.07;1.00;;;;;;;;;;4994335;28;20445;-51
2022/11/04 01:38:37;;;;;;;3.38;1.40;;;;;;;;;;4994152;28;20038;-49
2022/11/04 01:41:03;;;;;;;4.07;1.30;;;;;;;;;;4996625;28;20022;-45
2022/11/04 01:44:23;;;;;;;2.70;1.13;;;;;;;;;;4995802;28;20491;-49
2022/11/04 01:46:52;;;;;;;0.90;0.90;;;;;;;;;;4991243;28;20053;-48
2022/11/04 01:49:28;;;;;;;6.18;1.10;;;;;;;;;;4991113;28;20042;-48
2022/11/04 01:52:03;;;;;;;1.17;0.95;;;;;;;;;;4988603;28;20102;-48
2022/11/04 01:54:29;;;;;;;3.20;0.85;;;;;;;;;;4993823;28;20509;-49
2022/11/04 01:56:56;;;;;;;2.10;1.00;;;;;;;;;;4992068;28;20113;-46
2022/11/04 01:59:28;;;;;;;1.92;0.60;;;;;;;;;;4991655;28;20654;-47
2022/11/04 02:01:54;;;;;;;1.67;0.70;;;;;;;;;;4989902;28;20037;-47
2022/11/04 02:04:27;;;;;;;3.15;1.00;;;;;;;;;;4988166;28;20550;-48
2022/11/04 02:06:56;;;;;;;6.07;0.70;;;;;;;;;;4990947;28;20030;-47
2022/11/04 02:09:23;;;;;;;1.20;1.10;;;;;;;;;;4997421;28;20034;-47
2022/11/04 02:14:34;;;;;;;2.45;1.00;;;;;;;;;;4994730;28;20068;-46
2022/11/04 02:17:39;;;;;;;1.20;0.70;;;;;;;;;;4989769;28;20045;-45
2022/11/04 02:20:16;;;;;;;2.65;0.98;;;;;;;;;;4987555;28;20050;-45
2022/11/04 02:22:51;;;;;;;3.33;0.70;;;;;;;;;;4987032;28;20093;-42
2022/11/04 02:25:37;;;;;;;2.17;0.88;;;;;;;;;;4994126;28;20077;-42
2022/11/04 02:28:33;;;;;;;0.73;0.60;;;;;;;;;;4992975;28;20062;-44
2022/11/04 02:31:10;;;;;;;1.38;0.60;;;;;;;;;;4994113;28;20038;-42
2022/11/04 02:33:44;;;;;;;3.33;1.00;;;;;;;;;;4986614;28;20071;-42
2022/11/04 02:36:32;;;;;;;4.70;1.10;;;;;;;;;;4990221;28;20029;-42
2022/11/04 02:39:31;;;;;;;3.88;1.10;;;;;;;;;;4997961;28;20041;-42
2022/11/04 02:42:03;;;;;;;2.50;0.80;;;;;;;;;;4993651;28;20034;-43
2022/11/04 02:44:39;;;;;;;1.80;0.90;;;;;;;;;;4996202;28;20510;-45
2022/11/04 02:47:08;;;;;;;7.72;0.95;;;;;;;;;;4986551;28;20026;-42
2022/11/04 02:49:49;;;;;;;2.30;0.60;;;;;;;;;;4997180;28;20049;-42
2022/11/04 02:52:52;;;;;;;3.55;0.70;;;;;;;;;;4996144;28;20061;-44
2022/11/04 02:55:34;;;;;;;4.05;0.80;;;;;;;;;;4992655;28;20116;-44
2022/11/04 02:58:05;;;;;;;2.05;0.80;;;;;;;;;;4992995;28;20072;-43
2022/11/04 03:00:30;;;;;;;7.32;1.30;;;;;;;;;;4989040;28;20053;-44
2022/11/04 03:03:09;;;;;;;5.13;0.90;;;;;;;;;;4994222;28;20513;-44
2022/11/04 03:05:37;;;;;;;3.53;0.75;;;;;;;;;;4996456;28;20032;-43
2022/11/04 03:08:09;;;;;;;2.47;1.02;;;;;;;;;;4997773;28;20049;-42
2022/11/04 03:10:42;;;;;;;2.17;0.70;;;;;;;;;;5000438;28;20032;-42
2022/11/04 03:13:15;;;;;;;4.43;0.98;;;;;;;;;;4995972;28;20050;-42
2022/11/04 03:15:47;;;;;;;4.25;0.90;;;;;;;;;;4999757;28;20407;-44
2022/11/04 03:18:19;;;;;;;1.20;0.70;;;;;;;;;;4999481;28;20096;-45
2022/11/04 03:20:47;;;;;;;7.10;0.90;;;;;;;;;;5000937;28;20591;-46
2022/11/04 03:23:13;;;;;;;3.22;1.23;;;;;;;;;;4993254;28;20042;-46
2022/11/04 03:25:48;;;;;;;4.75;0.80;;;;;;;;;;5002315;28;20100;-42
2022/11/04 03:28:26;;;;;;;4.60;0.95;;;;;;;;;;4999188;28;20140;-43
2022/11/04 03:30:56;;;;;;;6.75;1.75;;;;;;;;;;4991074;28;20076;-43
2022/11/04 03:33:27;;;;;;;2.63;0.90;;;;;;;;;;4991150;28;20403;-43
2022/11/04 03:35:53;;;;;;;2.90;1.10;;;;;;;;;;4999577;28;20030;-43
2022/11/04 03:38:21;;;;;;;2.28;0.77;;;;;;;;;;5000049;28;20041;-43
2022/11/04 03:40:46;;;;;;;6.88;1.65;;;;;;;;;;4994849;28;20026;-42
2022/11/04 03:43:15;;;;;;;3.00;1.08;;;;;;;;;;4993670;28;20046;-44
2022/11/04 03:45:42;;;;;;;3.45;0.65;;;;;;;;;;4997440;28;20722;-42
2022/11/04 03:48:08;;;;;;;2.38;0.90;;;;;;;;;;4988796;28;20054;-42
2022/11/04 03:50:42;;;;;;;5.93;0.90;;;;;;;;;;4995587;28;20486;-44
2022/11/04 03:53:10;;;;;;;3.10;0.90;;;;;;;;;;4994436;28;20109;-44
2022/11/04 03:55:40;;;;;;;1.73;0.70;;;;;;;;;;4991415;28;20821;-44
2022/11/04 03:58:37;;;;;;;10.73;1.25;;;;;;;;;;4989031;28;20510;-41
2022/11/04 04:01:41;;;;;;;2.67;0.90;;;;;;;;;;4992267;28;20042;-45
2022/11/04 04:04:29;;;;;;;3.78;1.02;;;;;;;;;;4993799;28;20039;-44
2022/11/04 04:07:11;;;;;;;5.93;1.08;;;;;;;;;;4999594;28;20084;-42
2022/11/04 04:09:43;;;;;;;6.78;0.90;;;;;;;;;;4997519;28;20461;-45
2022/11/04 04:12:24;;;;;;;3.55;1.17;;;;;;;;;;4997708;28;20061;-42
2022/11/04 04:15:07;;;;;;;5.00;1.27;;;;;;;;;;4991017;28;20042;-42
2022/11/04 04:17:32;;;;;;;;;;;;;;;;;;4994769;28;20025;-48
2022/11/04 04:20:11;;;;;;;1.92;0.55;;;;;;;;;;4997785;28;20404;-46
2022/11/04 04:22:42;;;;;;;8.63;1.30;;;;;;;;;;4994392;28;20069;-44
2022/11/04 04:27:56;;;;;;;1.77;0.60;;;;;;;;;;4994888;28;20097;-43
2022/11/04 04:30:22;;;;;;;2.00;0.82;;;;;;;;;;4993370;28;20496;-46
2022/11/04 04:33:10;;;;;;;5.90;0.85;;;;;;;;;;4994879;28;20034;-42
2022/11/04 04:35:50;;;;;;;3.90;0.90;;;;;;;;;;4994475;28;20030;-42
2022/11/04 04:47:21;;;;;;;6.50;1.20;;;;;;;;;;4991796;28;20072;-42
2022/11/04 04:49:55;;;;;;;3.90;1.30;;;;;;;;;;4998128;28;20061;-42
2022/11/04 04:52:22;;;;;;;5.68;1.15;;;;;;;;;;4994830;28;20498;-43
2022/11/04 04:54:47;;;;;;;4.22;1.25;;;;;;;;;;4992667;28;20050;-43
2022/11/04 04:57:13;;;;;;;4.70;1.58;;;;;;;;;;4997983;28;20065;-43
2022/11/04 04:59:38;;;;;;;6.50;1.40;;;;;;;;;;4994365;28;20048;-42
2022/11/04 05:02:04;;;;;;;6.65;1.20;;;;;;;;;;4995426;28;20042;-44
2022/11/04 05:04:29;;;;;;;6.15;1.70;;;;;;;;;;4994152;28;20042;-43
2022/11/04 05:06:54;;;;;;;3.30;1.25;;;;;;;;;;4995760;28;20398;-42
2022/11/04 05:09:20;;;;;;;4.25;1.55;;;;;;;;;;4992707;28;20038;-43
2022/11/04 05:11:45;;;;;;;8.50;1.25;;;;;;;;;;5001782;28;20498;-41
2022/11/04 05:14:11;;;;;;;3.50;1.20;;;;;;;;;;4992866;28;20136;-44
2022/11/04 05:16:36;;;;;;;10.98;1.40;;;;;;;;;;4994578;28;20467;-41
2022/11/04 05:19:02;;;;;;;2.90;1.05;;;;;;;;;;4994302;28;20495;-44
2022/11/04 05:21:27;;;;;;;4.32;1.35;;;;;;;;;;4995916;28;20043;-42
2022/11/04 05:23:52;;;;;;;2.10;0.80;;;;;;;;;;4992968;28;20081;-42
2022/11/04 05:26:18;;;;;;;5.63;1.10;;;;;;;;;;4993165;28;20030;-45
2022/11/04 05:28:43;;;;;;;3.47;1.10;;;;;;;;;;4985566;28;20038;-43
2022/11/04 05:31:09;;;;;;;4.00;1.20;;;;;;;;;;4991144;28;20057;-42
2022/11/04 05:33:34;;;;;;;5.30;1.00;;;;;;;;;;4996015;28;20038;-43
2022/11/04 05:36:11;;;;;;;4.72;1.15;;;;;;;;;;4987313;28;20134;-43
2022/11/04 05:38:37;;;;;;;3.67;1.20;;;;;;;;;;4989729;28;20088;-42
2022/11/04 05:41:03;;;;;;;6.22;1.23;;;;;;;;;;4987727;28;20026;-42
2022/11/04 05:43:28;;;;;;;3.17;1.02;;;;;;;;;;4991322;28;20089;-42
2022/11/04 05:45:54;;;;;;;4.90;1.40;;;;;;;;;;4991953;28;20049;-45
2022/11/04 05:48:19;;;;;;;3.83;0.95;;;;;;;;;;4993378;28;20100;-44
2022/11/04 05:50:45;;;;;;;4.55;1.25;;;;;;;;;;4996810;28;20029;-43
2022/11/04 05:53:10;;;;;;;8.90;0.93;;;;;;;;;;4996300;28;20088;-42
2022/11/04 05:55:36;;;;;;;2.72;1.10;;;;;;;;;;4991028;28;20023;-43
2022/11/04 05:58:01;;;;;;;10.52;1.63;;;;;;;;;;4991937;28;20049;-44
2022/11/04 06:00:27;;;;;;;5.13;1.02;;;;;;;;;;4996652;28;20488;-43
2022/11/04 06:02:56;;;;;;;2.72;1.00;;;;;;;;;;4984121;28;20046;-42
2022/11/04 06:05:21;;;;;;;3.88;1.23;;;;;;;;;;4992571;28;20514;-43
2022/11/04 06:07:47;;;;;;;4.85;1.52;;;;;;;;;;4993811;28;20119;-42
2022/11/04 06:10:12;;;;;;;8.45;1.50;;;;;;;;;;4988172;28;20029;-43
2022/11/04 06:12:37;;;;;;;3.88;1.00;;;;;;;;;;4987979;28;20039;-45
2022/11/04 06:15:03;;;;;;;4.18;1.40;;;;;;;;;;4985621;28;20537;-42
2022/11/04 06:17:28;;;;;;;2.38;1.10;;;;;;;;;;4988811;28;20026;-46
2022/11/04 06:19:54;;;;;;;2.92;1.02;;;;;;;;;;4989464;28;20040;-41
2022/11/04 06:22:19;;;;;;;5.15;1.20;;;;;;;;;;4986470;28;20593;-42
2022/11/04 06:24:45;;;;;;;9.77;1.20;;;;;;;;;;4991807;28;20038;-43
2022/11/04 06:27:11;;;;;;;4.07;1.10;;;;;;;;;;4991656;28;20128;-42
2022/11/04 06:29:40;;;;;;;7.05;1.30;;;;;;;;;;4994651;28;20043;-42
2022/11/04 06:32:11;;;;;;;8.55;1.48;;;;;;;;;;4988202;28;20030;-43
2022/11/04 06:34:36;;;;;;;7.70;1.30;;;;;;;;;;4988067;28;20397;-41
2022/11/04 06:37:02;;;;;;;6.82;1.42;;;;;;;;;;4991378;28;20038;-42
2022/11/04 06:39:27;;;;;;;5.97;1.27;;;;;;;;;;4988880;28;20035;-43
2022/11/04 06:41:53;;;;;;;8.82;1.23;;;;;;;;;;4984421;28;20121;-42
2022/11/04 06:44:18;;;;;;;9.20;1.85;;;;;;;;;;4983687;28;20491;-41
2022/11/04 06:46:44;;;;;;;6.05;1.50;;;;;;;;;;4986797;28;20384;-42
2022/11/04 06:49:18;;;;;;;5.82;1.45;;;;;;;;;;4988773;28;20049;-42
2022/11/04 06:51:44;;;;;;;6.97;1.27;;;;;;;;;;4992770;28;20040;-42
2022/11/04 06:54:10;;;;;;;4.28;0.85;;;;;;;;;;4991726;28;20450;-42
2022/11/04 06:56:35;;;;;;;6.00;1.17;;;;;;;;;;4990568;28;20035;-41
2022/11/04 06:59:01;;;;;;;8.15;1.35;;;;;;;;;;5006688;28;20042;-41
2022/11/04 07:01:31;;;;;;;6.43;1.30;;;;;;;;;;4992199;28;20061;-44
2022/11/04 07:03:59;;;;;;;5.47;1.50;;;;;;;;;;5000563;28;20442;-44
2022/11/04 07:06:25;;;;;;;11.02;2.47;;;;;;;;;;4993533;28;20042;-41
2022/11/04 07:08:51;;;;;;;5.20;1.50;;;;;;;;;;4982373;28;20045;-43
2022/11/04 07:11:21;;;;;;;13.80;1.65;;;;;;;;;;4985644;28;20446;-43
2022/11/04 07:13:47;;;;;;;8.57;1.60;;;;;;;;;;4991662;28;20491;-42
2022/11/04 07:16:14;;;;;;;17.23;1.88;;;;;;;;;;4994204;28;20032;-41
2022/11/04 07:18:40;;;;;;;7.32;1.70;;;;;;;;;;4992219;28;20565;-41
2022/11/04 07:21:05;;;;;;;6.97;1.45;;;;;;;;;;4998956;28;20030;-42
2022/11/04 07:23:31;;;;;;;10.90;1.50;;;;;;;;;;4986687;28;20049;-42
2022/11/04 07:26:02;;;;;;;10.10;1.40;;;;;;;;;;4993676;28;20101;-42
2022/11/04 07:28:27;;;;;;;4.85;1.05;;;;;;;;;;4991643;28;20042;-45
2022/11/04 07:30:58;;;;;;;4.15;1.05;;;;;;;;;;4983755;28;20045;-42
2022/11/04 07:33:24;;;;;;;8.70;1.88;;;;;;;;;;4993662;28;20038;-48
2022/11/04 07:35:50;;;;;;;12.68;1.88;;;;;;;;;;4993522;28;20733;-43
2022/11/04 07:38:16;;;;;;;7.88;1.23;;;;;;;;;;4988623;28;20075;-42
2022/11/04 07:40:41;;;;;;;8.07;1.48;;;;;;;;;;4993035;28;20034;-43
2022/11/04 07:43:06;;;;;;;7.57;1.65;;;;;;;;;;4998097;28;20074;-42
2022/11/04 07:45:32;;;;;;;3.95;1.48;;;;;;;;;;4995278;28;20038;-42
2022/11/04 07:47:57;;;;;;;6.47;1.23;;;;;;;;;;4992747;28;20041;-41
2022/11/04 07:50:23;;;;;;;7.45;1.38;;;;;;;;;;4999285;28;20026;-42
2022/11/04 07:52:49;;;;;;;8.13;1.58;;;;;;;;;;5000471;28;20030;-42
2022/11/04 07:55:17;;;;;;;4.90;1.15;;;;;;;;;;4994038;28;20069;-42
2022/11/04 07:57:45;;;;;;;5.88;1.58;;;;;;;;;;4996460;28;20113;-41
2022/11/04 08:00:13;;;;;;;7.55;1.73;;;;;;;;;;4995979;28;20041;-42
2022/11/04 08:02:39;;;;;;;8.23;1.52;;;;;;;;;;4998163;28;20065;-44
2022/11/04 08:05:05;;;;;;;8.32;1.40;;;;;;;;;;4993773;28;20077;-41
2022/11/04 08:07:31;;;;;;;7.78;1.83;;;;;;;;;;4996132;28;20073;-43
2022/11/04 08:09:56;;;;;;;10.57;1.52;;;;;;;;;;4992948;28;20038;-42
2022/11/04 08:12:23;;;;;;;8.85;1.67;;;;;;;;;;4996703;28;20705;-42
2022/11/04 08:14:48;;;;;;;3.05;1.40;;;;;;;;;;4997565;28;20063;-43
2022/11/04 08:17:14;;;;;;;7.53;1.75;;;;;;;;;;4995982;28;20054;-42
2022/11/04 08:19:39;;;;;;;8.30;1.70;;;;;;;;;;4996150;28;20042;-42
2022/11/04 08:22:05;;;;;;;7.15;1.95;;;;;;;;;;4991552;28;20045;-43
2022/11/04 08:24:30;;;;;;;7.57;1.70;;;;;;;;;;4982353;28;22088;-43
2022/11/04 08:26:55;;;;;;;6.47;1.80;;;;;;;;;;4991958;28;20117;-42
2022/11/04 08:29:21;;;;;;;10.25;2.38;;;;;;;;;;4981743;28;20029;-43
2022/11/04 08:31:46;;;;;;;10.20;1.60;;;;;;;;;;4984092;28;20479;-43
2022/11/04 08:34:13;;;;;;;8.30;2.45;;;;;;;;;;4986735;28;20049;-42
2022/11/04 08:36:41;;;;;;;6.40;2.20;;;;;;;;;;4989588;28;20038;-44
2022/11/04 08:39:08;;;;;;;6.85;1.80;;;;;;;;;;4983227;28;20076;-42
2022/11/04 08:41:34;;;;;;;9.90;2.38;;;;;;;;;;4989162;28;20825;-43
2022/11/04 08:43:59;;;;;;;8.77;2.00;;;;;;;;;;4992250;28;20038;-44
2022/11/04 08:46:31;;;;;;;11.07;2.88;;;;;;;;;;4990606;28;20534;-42
2022/11/04 08:48:57;;;;;;;9.00;2.40;;;;;;;;;;4992767;28;20128;-41
2022/11/04 08:51:25;;;;;;;7.07;1.90;;;;;;;;;;4987357;28;20141;-42
2022/11/04 08:53:51;;;;;;;8.68;2.10;;;;;;;;;;4994068;28;20065;-45
2022/11/04 08:56:20;;;;;;;8.95;2.63;;;;;;;;;;4989736;28;20418;-44
2022/11/04 08:58:46;;;;;;;9.95;2.53;;;;;;;;;;4990963;28;20483;-41
2022/11/04 09:01:11;;;;;;;7.35;1.60;;;;;;;;;;4992884;28;20034;-41
2022/11/04 09:03:39;;;;;;;5.30;1.65;;;;;;;;;;4990855;28;20125;-42
2022/11/04 09:06:06;;;;;;;7.78;1.75;;;;;;;;;;4991419;28;20483;-43
2022/11/04 09:08:32;;;;;;;5.32;1.70;;;;;;;;;;4990235;28;20093;-43
2022/11/04 09:10:57;;;;;;;7.95;2.33;;;;;;;;;;4981769;28;20027;-46
2022/11/04 09:13:23;;;;;;;6.78;1.80;;;;;;;;;;4989796;28;20061;-45
2022/11/04 09:15:48;;;;;;;7.05;1.90;;;;;;;;;;4990159;28;20018;-43
2022/11/04 09:18:14;;;;;;;7.60;1.73;;;;;;;;;;4988041;28;20357;-42
2022/11/04 09:20:42;;;;;;;7.32;1.65;;;;;;;;;;4984200;28;20467;-43
2022/11/04 09:23:08;;;;;;;4.95;1.63;;;;;;;;;;4990612;28;20049;-42
2022/11/04 09:25:34;;;;;;;14.90;2.72;;;;;;;;;;4988838;28;20042;-43
2022/11/04 09:28:00;;;;;;;14.85;2.55;;;;;;;;;;4988061;28;20402;-42
2022/11/04 09:30:25;;;;;;;7.65;2.33;;;;;;;;;;4988486;28;20034;-44
2022/11/04 09:32:51;;;;;;;7.35;1.42;;;;;;;;;;4987769;28;20130;-44
2022/11/04 09:35:17;;;;;;;7.30;1.88;;;;;;;;;;4992535;28;20062;-43
2022/11/04 09:37:42;;;;;;;6.95;1.10;;;;;;;;;;4988615;28;20038;-43
2022/11/04 09:40:18;;;;;;;4.82;1.25;;;;;;;;;;4991132;28;20110;-44
2022/11/04 09:42:53;;;;;;;7.05;1.95;;;;;;;;;;4987801;28;20049;-43
2022/11/04 09:45:25;;;;;;;4.95;1.33;;;;;;;;;;4986864;28;20442;-46
2022/11/04 09:47:56;;;;;;;8.65;1.20;;;;;;;;;;4992103;28;20092;-45
2022/11/04 09:50:24;;;;;;;2.60;1.13;;;;;;;;;;4988161;28;20552;-46
2022/11/04 09:53:25;;;;;;;3.80;1.45;;;;;;;;;;4992752;28;20447;-45
2022/11/04 09:55:59;;;;;;;3.88;1.10;;;;;;;;;;4984292;28;20030;-44
2022/11/04 09:58:24;;;;;;;4.70;1.15;;;;;;;;;;4988734;28;23007;-43
2022/11/04 10:01:18;;;;;;;5.45;1.10;;;;;;;;;;4988062;28;20037;-46
2022/11/04 10:04:21;;;;;;;4.53;1.10;;;;;;;;;;4988654;28;20071;-45
2022/11/04 10:07:16;;;;;;;2.53;0.75;;;;;;;;;;4992132;28;21176;-43
2022/11/04 10:09:57;;;;;;;3.90;1.20;;;;;;;;;;4974952;28;20034;-46
2022/11/04 10:12:50;;;;;;;2.75;1.50;;;;;;;;;;4987655;28;20111;-43
2022/11/04 10:15:33;;;;;;;3.75;1.60;;;;;;;;;;4985204;28;20045;-43
2022/11/04 10:18:23;;;;;;;2.30;0.88;;;;;;;;;;4984602;28;20539;-42
2022/11/04 10:20:53;;;;;;;4.05;1.23;;;;;;;;;;4984159;28;20030;-43
2022/11/04 10:23:30;;;;;;;4.70;1.45;;;;;;;;;;4989873;28;20038;-43
2022/11/04 10:26:15;;;;;;;5.13;1.52;;;;;;;;;;4984822;28;20030;-43
2022/11/04 10:28:45;;;;;;;2.03;1.20;;;;;;;;;;4986112;28;20487;-42
2022/11/04 10:31:16;;;;;;;3.88;1.50;;;;;;;;;;4985081;28;20033;-43
2022/11/04 10:33:50;;;;;;;3.25;1.10;;;;;;;;;;4991769;28;20041;-47
2022/11/04 10:36:16;;;;;;;4.70;1.13;;;;;;;;;;4987909;28;20046;-44
2022/11/04 10:38:51;;;;;;;1.85;1.02;;;;;;;;;;4987755;28;20034;-44
2022/11/04 10:41:25;;;;;;;2.58;0.70;;;;;;;;;;4991274;28;20049;-43
2022/11/04 10:43:56;;;;;;;2.88;1.55;;;;;;;;;;4986867;28;20042;-46
2022/11/04 10:46:36;;;;;;;1.35;1.20;;;;;;;;;;4986251;28;20093;-42
2022/11/04 10:49:29;;;;;;;1.40;1.10;;;;;;;;;;4986647;28;20022;-42
2022/11/04 10:51:55;;;;;;;5.90;1.13;;;;;;;;;;4994429;28;20051;-41
2022/11/04 10:54:23;;;;;;;3.15;0.88;;;;;;;;;;4993076;28;20646;-44
2022/11/04 10:56:52;;;;;;;1.65;0.88;;;;;;;;;;4980824;28;20072;-45
2022/11/04 10:59:59;;;;;;;2.15;0.90;;;;;;;;;;4984846;28;20034;-42
2022/11/04 11:02:44;;;;;;;1.75;0.65;;;;;;;;;;4967174;28;20138;-43
2022/11/04 11:05:18;;;;;;;1.80;1.25;;;;;;;;;;4962549;28;20504;-44
2022/11/04 11:07:45;;;;;;;2.67;1.15;;;;;;;;;;4963626;28;20046;-42
2022/11/04 11:10:21;;;;;;;4.90;1.48;;;;;;;;;;4964366;28;20695;-42
2022/11/04 11:12:55;;;;;;;1.52;1.35;;;;;;;;;;4971896;28;20066;-42
2022/11/04 11:15:23;;;;;;;1.35;1.02;;;;;;;;;;4972034;28;20078;-43
2022/11/04 11:17:51;;;;;;;6.28;0.68;;;;;;;;;;4963029;28;20043;-43
2022/11/04 11:20:21;;;;;;;1.17;0.43;;;;;;;;;;4973007;28;20047;-43
2022/11/04 11:22:50;;;;;;;1.83;0.30;;;;;;;;;;4970614;28;20640;-43
2022/11/04 11:25:27;;;;;;;0.40;0.40;;;;;;;;;;4975205;28;20478;-45
2022/11/04 11:28:05;;;;;;;1.77;0.50;;;;;;;;;;4970555;28;20084;-44
2022/11/04 11:30:35;;;;;;;1.08;0.40;;;;;;;;;;4966669;28;20030;-45
2022/11/04 11:33:26;;;;;;;0.20;0.20;;;;;;;;;;4975059;28;20133;-43
2022/11/04 11:35:55;;;;;;;0.68;0.38;;;;;;;;;;4992327;28;20485;-43
2022/11/04 11:38:23;;;;;;;3.10;0.60;;;;;;;;;;4990170;28;20053;-44
2022/11/04 11:40:51;;;;;;;0.22;0.22;;;;;;;;;;4999969;28;20054;-45
2022/11/04 11:43:39;;;;;;;1.30;0.10;;;;;;;;;;4997700;28;20046;-44
2022/11/04 11:46:05;;;;;;;0.13;0.10;;;;;;;;;;4986237;28;20490;-43
2022/11/04 11:48:39;;;;;;;1.08;0.38;;;;;;;;;;4996000;28;20038;-46
2022/11/04 11:51:05;;;;;;;0.75;0.30;;;;;;;;;;4990845;28;20038;-43
2022/11/04 11:53:39;;;;;;;1.55;0.40;;;;;;;;;;4992394;28;20943;-42
2022/11/04 11:56:26;;;;;;;1.20;0.50;;;;;;;;;;4991903;28;20034;-43
2022/11/04 11:59:06;;;;;;;4.45;0.47;;;;;;;;;;4989925;28;20037;-43
2022/11/04 12:01:49;;;;;;;3.15;0.40;;;;;;;;;;4989627;28;20491;-45
2022/11/04 12:04:16;;;;;;;2.53;0.43;;;;;;;;;;4990457;28;20026;-46
2022/11/04 12:07:02;;;;;;;0.40;0.30;;;;;;;;;;4994698;28;20069;-43
2022/11/04 12:09:50;;;;;;;0.80;0.50;;;;;;;;;;4996712;28;20034;-43
2022/11/04 12:12:45;;;;;;;0.80;0.50;;;;;;;;;;4984852;28;20398;-42
2022/11/04 12:15:22;;;;;;;2.55;0.32;;;;;;;;;;4969356;28;20058;-43
2022/11/04 12:18:26;;;;;;;1.88;0.47;;;;;;;;;;4965043;28;20131;-43
2022/11/04 12:21:06;;;;;;;1.40;0.40;;;;;;;;;;4971382;28;20070;-43
2022/11/04 12:23:55;;;;;;;6.35;0.57;;;;;;;;;;4972176;28;20046;-43
2022/11/04 12:26:23;;;;;;;0.93;0.57;;;;;;;;;;4972417;28;20049;-44
2022/11/04 12:29:00;;;;;;;2.13;0.60;;;;;;;;;;4975010;28;20122;-44
2022/11/04 12:31:39;;;;;;;4.63;0.40;;;;;;;;;;4968374;28;20122;-48
2022/11/04 12:34:35;;;;;;;1.80;0.70;;;;;;;;;;4969698;28;20069;-43
2022/11/04 12:37:13;;;;;;;0.57;0.57;;;;;;;;;;4972232;28;20121;-49
2022/11/04 12:40:07;;;;;;;1.33;0.45;;;;;;;;;;4975301;28;20049;-43
2022/11/04 12:42:56;;;;;;;0.60;0.35;;;;;;;;;;4973393;28;20046;-42
2022/11/04 12:45:24;;;;;;;3.65;0.68;;;;;;;;;;4967388;28;20075;-44
2022/11/04 12:47:49;;;;;;;2.08;0.30;;;;;;;;;;4971233;28;20041;-44
2022/11/04 12:50:42;;;;;;;6.38;0.63;;;;;;;;;;4965684;28;20035;-43
2022/11/04 12:53:25;;;;;;;;;;;;;;;;;;4991098;28;20074;-47
2022/11/04 12:56:10;;;;;;;4.70;0.80;;;;;;;;;;4993298;28;19936;-45
2022/11/04 12:59:08;;;;;;;2.05;0.77;;;;;;;;;;4992785;28;20058;-45
2022/11/04 13:01:41;;;;;;;2.88;0.73;;;;;;;;;;4971253;28;20110;-44
2022/11/04 13:04:12;;;;;;;4.10;0.68;;;;;;;;;;4966521;28;20054;-42
2022/11/04 13:06:44;;;;;;;0.80;0.60;;;;;;;;;;4973805;28;20039;-44
2022/11/04 13:09:37;;;;;;;1.75;0.70;;;;;;;;;;4965797;28;20040;-46
2022/11/04 13:12:24;;;;;;;3.00;0.50;;;;;;;;;;4961398;28;20105;-43
2022/11/04 13:14:52;;;;;;;1.50;0.40;;;;;;;;;;4973053;28;20602;-44
2022/11/04 13:17:27;;;;;;;8.98;0.50;;;;;;;;;;4968988;28;20127;-45
2022/11/04 13:19:57;;;;;;;0.90;0.50;;;;;;;;;;4968324;28;20113;-44
2022/11/04 13:22:30;;;;;;;2.30;0.75;;;;;;;;;;4971177;28;20057;-44
2022/11/04 13:25:02;;;;;;;1.92;0.57;;;;;;;;;;4970513;28;20050;-43
2022/11/04 13:27:36;;;;;;;1.70;0.70;;;;;;;;;;4969911;28;20442;-44
2022/11/04 13:30:26;;;;;;;1.83;0.75;;;;;;;;;;4971336;28;20046;-43
2022/11/04 13:33:20;;;;;;;0.80;0.50;;;;;;;;;;4966824;28;20651;-49
2022/11/04 13:35:52;;;;;;;1.88;0.63;;;;;;;;;;4946440;28;21178;-47
2022/11/04 13:38:40;;;;;;;3.30;0.70;;;;;;;;;;4970311;28;20056;-43
2022/11/04 13:41:24;;;;;;;2.63;0.85;;;;;;;;;;4980950;28;20062;-44
2022/11/04 13:43:58;;;;;;;1.75;0.60;;;;;;;;;;4982443;28;20097;-47
2022/11/04 13:46:33;;;;;;;0.90;0.50;;;;;;;;;;4985480;28;20054;-43
2022/11/04 13:49:01;;;;;;;6.40;0.85;;;;;;;;;;4986600;28;20041;-47
2022/11/04 13:51:34;;;;;;;3.92;0.60;;;;;;;;;;4971373;28;20419;-44
2022/11/04 13:53:59;;;;;;;1.70;0.40;;;;;;;;;;4980647;28;20045;-44
2022/11/04 13:56:30;;;;;;;1.52;0.63;;;;;;;;;;4985993;28;20532;-47
2022/11/04 13:59:00;;;;;;;0.50;0.40;;;;;;;;;;4991425;28;20029;-45
2022/11/04 14:01:29;;;;;;;4.57;0.90;;;;;;;;;;4985739;28;20066;-43
2022/11/04 14:04:30;;;;;;;2.85;0.73;;;;;;;;;;4987819;28;20084;-43
2022/11/04 14:06:59;;;;;;;1.48;0.70;;;;;;;;;;4984960;28;20056;-43
2022/11/04 14:09:27;;;;;;;4.82;0.68;;;;;;;;;;4985853;28;20045;-44
2022/11/04 14:12:17;;;;;;;3.15;0.93;;;;;;;;;;4984164;28;20436;-44
2022/11/04 14:14:49;;;;;;;4.22;0.90;;;;;;;;;;4990502;28;20034;-43
2022/11/04 14:17:33;;;;;;;;;;;;;;;;;;4985471;28;20041;-44
2022/11/04 14:20:04;;;;;;;4.38;1.05;;;;;;;;;;4988700;28;20020;-43
2022/11/04 14:22:36;;;;;;;3.65;1.23;;;;;;;;;;4986652;28;20146;-44
2022/11/04 14:25:34;;;;;;;3.72;1.10;;;;;;;;;;4988017;28;20093;-43
2022/11/04 14:28:08;;;;;;;3.58;1.30;;;;;;;;;;4989357;28;20117;-49
2022/11/04 14:30:43;;;;;;;1.95;1.10;;;;;;;;;;4989829;28;20053;-46
2022/11/04 14:33:32;;;;;;;5.68;1.30;;;;;;;;;;4988723;28;20053;-44
2022/11/04 14:36:16;;;;;;;2.05;1.10;;;;;;;;;;4987218;28;20109;-43
2022/11/04 14:38:42;;;;;;;4.07;1.10;;;;;;;;;;4984908;28;20065;-46
2022/11/04 14:41:22;;;;;;;0.93;0.57;;;;;;;;;;4983865;28;20033;-43
2022/11/04 14:43:48;;;;;;;2.10;0.80;;;;;;;;;;4985057;28;20030;-43
2022/11/04 14:46:24;;;;;;;1.25;0.90;;;;;;;;;;4986728;28;20073;-45
2022/11/04 14:48:53;;;;;;;3.58;1.33;;;;;;;;;;4993221;28;20115;-43
2022/11/04 14:51:30;;;;;;;3.97;2.20;;;;;;;;;;4988909;28;20134;-43
2022/11/04 14:54:24;;;;;;;4.57;2.40;;;;;;;;;;4992495;28;20065;-44
2022/11/04 14:56:50;;;;;;;4.28;2.53;;;;;;;;;;4981172;28;20061;-44
2022/11/04 14:59:26;;;;;;;6.30;2.75;;;;;;;;;;4986053;28;20104;-43
2022/11/04 15:01:53;;;;;;;4.38;3.00;;;;;;;;;;4988757;28;20077;-45
2022/11/04 15:04:29;;;;;;;3.47;1.92;;;;;;;;;;4987738;28;20026;-44
2022/11/04 15:07:03;;;;;;;3.72;1.58;;;;;;;;;;4993245;28;20432;-45
2022/11/04 15:09:33;;;;;;;3.13;0.98;;;;;;;;;;4987837;28;20026;-43
2022/11/04 15:14:56;;;;;;;2.30;0.98;;;;;;;;;;4986444;28;20041;-46
2022/11/04 15:17:26;;;;;;;2.13;0.90;;;;;;;;;;4986702;28;20034;-44
2022/11/04 15:19:54;;;;;;;1.65;1.30;;;;;;;;;;4988059;28;20033;-44
2022/11/04 15:22:21;;;;;;;6.65;1.02;;;;;;;;;;4987079;28;20391;-45
2022/11/04 15:24:46;;;;;;;2.58;1.13;;;;;;;;;;4996649;28;20022;-44
2022/11/04 15:27:17;;;;;;;3.92;1.15;;;;;;;;;;4979223;28;20054;-45
2022/11/04 15:30:02;;;;;;;4.10;1.00;;;;;;;;;;4994552;28;20414;-43
2022/11/04 15:32:28;;;;;;;1.08;0.90;;;;;;;;;;4985559;28;20181;-43
2022/11/04 15:34:54;;;;;;;4.38;1.08;;;;;;;;;;4989724;28;20484;-46
2022/11/04 15:37:22;;;;;;;5.18;1.10;;;;;;;;;;4983101;28;20043;-47
2022/11/04 15:39:51;;;;;;;3.50;1.17;;;;;;;;;;4986027;28;20026;-44
2022/11/04 15:42:35;;;;;;;2.28;1.13;;;;;;;;;;4988529;28;20034;-46
2022/11/04 15:45:51;;;;;;;1.25;0.90;;;;;;;;;;4984762;28;20039;-45
2022/11/04 15:48:33;;;;;;;2.72;1.05;;;;;;;;;;4930102;28;20059;-46